Time;durP1;ratioP1;P1;durP2;ratioP2;P2;SDS_P1;SDS_P2;PMS_P1;PMS_P2;Temp;Humidity;BMP_temperature;BMP_pressure;BME280_temperature;BME280_humidity;BME280_pressure;Samples;Min_cycle;Max_cycle;Signal;HPM_P1;HPM_P2
2022/01/30 00:01:15;;;;;;;26.98;6.35;;;6.40;99.90;;;;;;5132510;27;20047;-77
2022/01/30 00:03:41;;;;;;;45.35;6.85;;;6.30;99.90;;;;;;5139393;27;20075;-77
2022/01/30 00:06:08;;;;;;;29.55;7.18;;;6.10;99.90;;;;;;5130485;27;20046;-76
2022/01/30 00:08:35;;;;;;;27.45;8.15;;;5.90;99.90;;;;;;5138882;27;20054;-77
2022/01/30 00:11:03;;;;;;;35.92;7.28;;;5.90;99.90;;;;;;5122358;27;20043;-77
2022/01/30 00:13:30;;;;;;;19.90;8.25;;;5.90;99.90;;;;;;5130886;27;20474;-77
2022/01/30 00:15:57;;;;;;;23.98;5.95;;;5.90;99.90;;;;;;5118115;27;20583;-77
2022/01/30 00:21:11;;;;;;;40.65;7.55;;;6.30;99.90;;;;;;5135108;27;20047;-77
2022/01/30 00:23:44;;;;;;;37.55;7.82;;;6.50;99.90;;;;;;5143731;27;20133;-75
2022/01/30 00:26:13;;;;;;;38.25;8.60;;;6.50;99.90;;;;;;5132674;27;20095;-78
2022/01/30 00:28:40;;;;;;;27.92;7.63;;;6.40;99.90;;;;;;5141622;27;20061;-77
2022/01/30 00:31:08;;;;;;;28.65;6.20;;;6.30;99.90;;;;;;5142537;27;20075;-76
2022/01/30 00:33:35;;;;;;;30.00;6.57;;;6.30;99.90;;;;;;5118963;27;20040;-77
2022/01/30 00:36:01;;;;;;;30.75;7.38;;;6.40;99.90;;;;;;5128403;27;20051;-76
2022/01/30 00:38:28;;;;;;;33.92;6.03;;;6.40;99.90;;;;;;5122330;27;20484;-77
2022/01/30 00:40:54;;;;;;;19.45;5.35;;;6.30;99.90;;;;;;5119822;27;20470;-77
2022/01/30 00:43:21;;;;;;;26.15;6.30;;;6.20;99.90;;;;;;5152776;27;20054;-78
2022/01/30 00:45:47;;;;;;;23.67;5.07;;;6.10;99.90;;;;;;5124618;27;20051;-77
2022/01/30 00:48:14;;;;;;;26.50;6.70;;;6.00;99.90;;;;;;5124937;27;20051;-77
2022/01/30 00:50:40;;;;;;;15.80;4.97;;;6.10;99.90;;;;;;5118247;27;20078;-77
2022/01/30 00:53:07;;;;;;;13.68;4.32;;;6.00;99.90;;;;;;5125259;27;20047;-77
2022/01/30 00:55:34;;;;;;;23.38;5.95;;;6.10;99.90;;;;;;5134257;27;20051;-80
2022/01/30 00:58:01;;;;;;;21.92;5.05;;;6.10;99.90;;;;;;5117668;27;20054;-78
2022/01/30 01:00:27;;;;;;;16.50;5.35;;;6.10;99.90;;;;;;5127396;27;20474;-77
2022/01/30 01:02:54;;;;;;;13.55;4.18;;;6.10;99.90;;;;;;5117140;27;20051;-77
2022/01/30 01:05:20;;;;;;;22.77;4.13;;;6.10;99.90;;;;;;5143117;27;20055;-77
2022/01/30 01:07:48;;;;;;;10.77;3.78;;;6.00;99.90;;;;;;5119037;27;20409;-76
2022/01/30 01:10:24;;;;;;;19.50;4.57;;;5.90;99.90;;;;;;5120229;27;20039;-77
2022/01/30 01:13:03;;;;;;;22.20;5.00;;;5.90;99.90;;;;;;5142497;27;20047;-77
2022/01/30 01:23:44;;;;;;;29.42;6.78;;;5.90;99.90;;;;;;5135432;27;20486;-78
2022/01/30 01:26:11;;;;;;;34.20;6.15;;;6.00;99.90;;;;;;5131493;27;20050;-77
2022/01/30 01:28:37;;;;;;;32.25;6.38;;;6.00;99.90;;;;;;5135479;27;20043;-78
2022/01/30 01:31:04;;;;;;;33.22;7.00;;;6.10;99.90;;;;;;5125623;27;20046;-77
2022/01/30 01:33:39;;;;;;;23.85;7.88;;;6.10;99.90;;;;;;5120461;27;20051;-76
2022/01/30 01:36:05;;;;;;;25.50;6.35;;;6.10;99.90;;;;;;5123590;27;20054;-76
2022/01/30 01:38:32;;;;;;;32.13;7.55;;;6.20;99.90;;;;;;5120689;27;20058;-76
2022/01/30 01:40:59;;;;;;;29.27;7.25;;;6.10;99.90;;;;;;5152614;27;20115;-77
2022/01/30 01:43:25;;;;;;;41.03;9.18;;;6.20;99.90;;;;;;5132619;27;20047;-75
2022/01/30 01:45:54;;;;;;;29.88;6.70;;;6.20;99.90;;;;;;5121610;27;20043;-77
2022/01/30 01:48:20;;;;;;;35.65;7.97;;;6.30;99.90;;;;;;5126154;27;20055;-77
2022/01/30 01:50:52;;;;;;;25.45;7.15;;;5.70;99.90;;;;;;5123162;27;20053;-76
2022/01/30 01:53:19;;;;;;;18.38;5.60;;;5.90;99.90;;;;;;5120750;27;20461;-79
2022/01/30 01:55:45;;;;;;;9.52;4.47;;;5.90;99.90;;;;;;5119852;27;20054;-77
2022/01/30 01:58:12;;;;;;;20.17;4.85;;;5.90;99.90;;;;;;5136809;27;20043;-77
2022/01/30 02:00:38;;;;;;;22.60;5.20;;;5.90;99.90;;;;;;5123280;27;20039;-79
2022/01/30 02:03:05;;;;;;;15.02;4.15;;;6.00;99.90;;;;;;5121117;27;20043;-77
2022/01/30 02:05:34;;;;;;;28.50;5.68;;;5.90;99.90;;;;;;5128011;27;20087;-76
2022/01/30 02:10:55;;;;;;;27.17;6.15;;;5.90;99.90;;;;;;5128731;27;20058;-77
2022/01/30 02:13:39;;;;;;;24.23;6.18;;;6.00;99.90;;;;;;5128248;27;20092;-76
2022/01/30 02:24:35;;;;;;;36.20;9.57;;;5.90;99.90;;;;;;5122418;27;20530;-75
2022/01/30 02:27:02;;;;;;;31.52;8.55;;;5.90;99.90;;;;;;5120617;27;20039;-76
2022/01/30 02:29:29;;;;;;;25.40;7.45;;;5.90;99.90;;;;;;5129253;27;20110;-79
2022/01/30 02:31:58;;;;;;;38.80;8.48;;;5.90;99.90;;;;;;5126905;27;20103;-76
2022/01/30 02:34:24;;;;;;;29.83;7.85;;;5.90;99.90;;;;;;5120961;27;20050;-77
2022/01/30 02:36:51;;;;;;;43.85;9.75;;;6.00;99.90;;;;;;5137564;27;20042;-77
2022/01/30 02:39:18;;;;;;;33.75;7.90;;;6.10;99.90;;;;;;5125600;27;20051;-77
2022/01/30 02:41:45;;;;;;;39.42;9.25;;;6.20;99.90;;;;;;5122247;27;20095;-77
2022/01/30 02:44:16;;;;;;;36.45;9.68;;;6.20;99.90;;;;;;5133617;27;20043;-77
2022/01/30 02:46:45;;;;;;;24.65;7.80;;;6.20;99.90;;;;;;5147685;27;20057;-78
2022/01/30 02:49:29;;;;;;;37.30;7.57;;;6.30;99.90;;;;;;5122254;27;20099;-77
2022/01/30 02:51:58;;;;;;;48.60;8.93;;;6.20;99.90;;;;;;5115825;27;20130;-77
2022/01/30 02:54:24;;;;;;;37.65;10.15;;;6.30;99.90;;;;;;5119279;27;20049;-77
2022/01/30 02:56:51;;;;;;;36.83;9.23;;;6.30;99.90;;;;;;5153097;27;20042;-77
2022/01/30 02:59:17;;;;;;;23.27;6.88;;;6.50;99.90;;;;;;5151899;27;20046;-77
2022/01/30 03:01:44;;;;;;;46.47;10.75;;;6.40;99.90;;;;;;5125632;27;20054;-78
2022/01/30 03:04:11;;;;;;;44.55;8.43;;;6.40;99.90;;;;;;5121695;27;20046;-77
2022/01/30 03:06:38;;;;;;;29.60;7.30;;;6.30;99.90;;;;;;5126809;27;20092;-76
2022/01/30 03:09:05;;;;;;;36.63;9.38;;;6.40;99.90;;;;;;5122118;27;20050;-77
2022/01/30 03:11:31;;;;;;;39.65;8.50;;;6.30;99.90;;;;;;5123993;27;20050;-77
2022/01/30 03:13:58;;;;;;;43.08;10.27;;;6.20;99.90;;;;;;5119437;27;20057;-77
2022/01/30 03:16:24;;;;;;;44.17;9.68;;;6.20;99.90;;;;;;5123244;27;20047;-79
2022/01/30 03:18:51;;;;;;;34.08;9.57;;;6.30;99.90;;;;;;5117377;27;20047;-77
2022/01/30 03:21:17;;;;;;;54.83;10.40;;;6.30;99.90;;;;;;5120713;27;20097;-77
2022/01/30 03:23:44;;;;;;;42.05;10.30;;;6.30;99.90;;;;;;5121005;27;20054;-79
2022/01/30 03:26:12;;;;;;;31.65;8.18;;;6.40;99.90;;;;;;5124085;27;20050;-77
2022/01/30 03:28:40;;;;;;;29.98;8.35;;;6.40;99.90;;;;;;5115904;27;20081;-76
2022/01/30 03:31:08;;;;;;;37.72;10.23;;;6.60;99.90;;;;;;5120787;27;20100;-76
2022/01/30 03:33:35;;;;;;;35.78;9.63;;;6.50;99.90;;;;;;5115493;27;20477;-77
2022/01/30 03:36:01;;;;;;;31.40;10.20;;;6.70;99.90;;;;;;5137062;27;20484;-76
2022/01/30 03:38:28;;;;;;;33.88;10.35;;;6.70;99.90;;;;;;5120300;27;20043;-77
2022/01/30 03:40:54;;;;;;;38.00;10.23;;;6.70;99.90;;;;;;5116832;28;20055;-77
2022/01/30 03:43:21;;;;;;;33.70;9.05;;;6.60;99.90;;;;;;5126665;27;20042;-77
2022/01/30 03:45:48;;;;;;;49.80;9.75;;;6.70;99.90;;;;;;5121440;28;20047;-76
2022/01/30 03:48:14;;;;;;;38.60;9.95;;;6.60;99.90;;;;;;5135393;27;20058;-77
2022/01/30 03:50:41;;;;;;;44.72;9.43;;;6.70;99.90;;;;;;5125862;27;20113;-77
2022/01/30 03:53:07;;;;;;;45.90;10.82;;;6.80;99.90;;;;;;5123776;28;20918;-77
2022/01/30 03:55:34;;;;;;;43.58;9.90;;;6.70;99.90;;;;;;5142961;27;20482;-77
2022/01/30 03:58:00;;;;;;;37.63;10.68;;;6.60;99.90;;;;;;5123423;27;20058;-76
2022/01/30 04:00:27;;;;;;;42.05;10.23;;;6.70;99.90;;;;;;5131217;27;20046;-76
2022/01/30 04:02:54;;;;;;;46.80;10.93;;;6.60;99.90;;;;;;5130381;27;20051;-75
2022/01/30 04:05:20;;;;;;;37.75;10.43;;;6.60;99.90;;;;;;5124462;27;20042;-76
2022/01/30 04:07:47;;;;;;;55.20;11.38;;;6.60;99.90;;;;;;5125954;27;20051;-79
2022/01/30 04:10:13;;;;;;;52.05;10.75;;;6.50;99.90;;;;;;5118247;28;20124;-77
2022/01/30 04:12:40;;;;;;;48.13;9.15;;;6.60;99.90;;;;;;5122677;27;20046;-77
2022/01/30 04:15:06;;;;;;;45.13;11.13;;;6.60;99.90;;;;;;5120469;27;20059;-77
2022/01/30 04:17:33;;;;;;;43.42;8.55;;;6.60;99.90;;;;;;5121867;27;20043;-77
2022/01/30 04:19:59;;;;;;;33.47;9.25;;;6.70;99.90;;;;;;5131713;27;20048;-77
2022/01/30 04:22:26;;;;;;;36.20;10.05;;;6.70;99.90;;;;;;5119812;28;20043;-76
2022/01/30 04:24:53;;;;;;;37.53;11.43;;;6.80;99.90;;;;;;5123256;28;20047;-77
2022/01/30 04:27:20;;;;;;;53.05;10.15;;;6.90;99.90;;;;;;5128411;27;20051;-77
2022/01/30 04:29:46;;;;;;;44.55;10.55;;;7.00;99.90;;;;;;5136398;27;20082;-77
2022/01/30 04:32:13;;;;;;;40.25;10.00;;;6.80;99.90;;;;;;5116985;27;20524;-78
2022/01/30 04:34:41;;;;;;;34.55;8.52;;;6.80;99.90;;;;;;5117286;28;20131;-76
2022/01/30 04:37:16;;;;;;;36.58;8.07;;;6.90;99.90;;;;;;5117656;27;20134;-77
2022/01/30 04:40:11;;;;;;;26.63;8.98;;;6.70;99.90;;;;;;5137716;27;20053;-76
2022/01/30 04:53:51;;;;;;;43.70;9.77;;;6.30;99.90;;;;;;5150291;27;20046;-77
2022/01/30 04:56:52;;;;;;;31.38;9.00;;;6.20;99.90;;;;;;5121723;27;20058;-77
2022/01/30 04:59:41;;;;;;;25.17;9.55;;;6.30;99.90;;;;;;5126149;27;20035;-77
2022/01/30 05:02:11;;;;;;;47.35;11.52;;;6.30;99.90;;;;;;5125225;27;20050;-77
2022/01/30 05:04:48;;;;;;;49.58;9.75;;;6.20;99.90;;;;;;5128531;27;20475;-77
2022/01/30 05:07:29;;;;;;;42.22;10.38;;;6.30;99.90;;;;;;5134401;27;20066;-77
2022/01/30 05:09:56;;;;;;;;;;;6.40;99.90;;;;;;5130572;27;20782;-77
2022/01/30 05:12:23;;;;;;;26.15;8.07;;;6.40;99.90;;;;;;5149676;27;19925;-77
2022/01/30 05:14:49;;;;;;;34.67;9.73;;;6.40;99.90;;;;;;5118176;27;20134;-75
2022/01/30 05:17:16;;;;;;;24.33;7.88;;;6.60;99.90;;;;;;5139709;27;20057;-77
2022/01/30 05:19:42;;;;;;;47.88;9.18;;;6.70;99.90;;;;;;5120955;27;20057;-76
2022/01/30 05:22:09;;;;;;;34.85;12.13;;;6.60;99.90;;;;;;5148412;27;20047;-77
2022/01/30 05:24:35;;;;;;;49.22;10.52;;;6.70;99.90;;;;;;5122495;27;20046;-76
2022/01/30 05:27:02;;;;;;;32.42;9.07;;;6.90;99.90;;;;;;5149906;27;20049;-77
2022/01/30 05:29:28;;;;;;;42.53;11.27;;;6.50;99.90;;;;;;5127336;27;20058;-75
2022/01/30 05:31:55;;;;;;;22.80;8.00;;;6.20;99.90;;;;;;5133380;27;20077;-79
2022/01/30 05:34:21;;;;;;;50.28;10.15;;;6.30;99.90;;;;;;5131179;27;20062;-77
2022/01/30 05:36:48;;;;;;;54.17;11.65;;;6.30;99.90;;;;;;5142773;27;20055;-76
2022/01/30 05:39:15;;;;;;;47.78;10.57;;;6.10;99.90;;;;;;5117553;27;20047;-77
2022/01/30 05:41:41;;;;;;;36.33;8.45;;;6.10;99.90;;;;;;5125451;27;20051;-76
2022/01/30 05:44:11;;;;;;;42.75;10.70;;;6.10;99.90;;;;;;5135977;27;20044;-77
2022/01/30 05:46:43;;;;;;;50.03;11.00;;;6.20;99.90;;;;;;5145280;27;20510;-78
2022/01/30 05:49:10;;;;;;;57.60;12.10;;;6.30;99.90;;;;;;5120966;27;20514;-78
2022/01/30 05:51:36;;;;;;;40.53;11.20;;;6.30;99.90;;;;;;5122204;27;20786;-76
2022/01/30 05:54:03;;;;;;;44.45;11.48;;;6.40;99.90;;;;;;5125607;27;20050;-78
2022/01/30 05:56:29;;;;;;;44.35;10.55;;;6.30;99.90;;;;;;5146954;27;20409;-77
2022/01/30 05:58:56;;;;;;;43.28;9.73;;;6.10;99.90;;;;;;5121815;27;20481;-80
2022/01/30 06:01:22;;;;;;;42.80;11.57;;;6.10;99.90;;;;;;5139012;27;20039;-77
2022/01/30 06:03:49;;;;;;;51.50;12.30;;;6.10;99.90;;;;;;5142726;27;20054;-77
2022/01/30 06:06:15;;;;;;;33.47;10.32;;;6.00;99.90;;;;;;5119215;27;20047;-77
2022/01/30 06:08:45;;;;;;;44.47;9.82;;;6.00;99.90;;;;;;5117864;27;20138;-77
2022/01/30 06:11:12;;;;;;;52.20;12.23;;;6.00;99.90;;;;;;5129602;27;20122;-79
2022/01/30 06:13:38;;;;;;;30.33;9.35;;;5.90;99.90;;;;;;5123962;27;20050;-77
2022/01/30 06:16:05;;;;;;;45.58;10.50;;;6.00;99.90;;;;;;5115353;27;20064;-78
2022/01/30 06:18:32;;;;;;;35.00;8.85;;;6.00;99.90;;;;;;5119323;27;20044;-77
2022/01/30 06:20:58;;;;;;;35.03;10.30;;;6.20;99.90;;;;;;5116535;27;20070;-80
2022/01/30 06:23:26;;;;;;;51.22;11.65;;;6.20;99.90;;;;;;5116648;27;20060;-76
2022/01/30 06:25:52;;;;;;;48.95;12.10;;;6.00;99.90;;;;;;5119658;27;20043;-79
2022/01/30 06:28:19;;;;;;;41.35;10.27;;;5.90;99.90;;;;;;5115046;27;20040;-77
2022/01/30 06:30:45;;;;;;;52.17;11.10;;;5.60;99.90;;;;;;5119634;27;20059;-76
2022/01/30 06:33:12;;;;;;;43.78;12.70;;;5.60;99.90;;;;;;5123718;27;20052;-76
2022/01/30 06:35:39;;;;;;;69.25;12.73;;;5.70;99.90;;;;;;5114159;27;20073;-77
2022/01/30 06:38:05;;;;;;;29.55;8.02;;;5.70;99.90;;;;;;5122720;27;20101;-78
2022/01/30 06:40:32;;;;;;;34.83;9.07;;;5.90;99.90;;;;;;5118434;27;20043;-80
2022/01/30 06:42:58;;;;;;;47.38;8.57;;;5.60;99.90;;;;;;5113167;27;20051;-78
2022/01/30 06:45:25;;;;;;;49.30;12.18;;;5.70;99.90;;;;;;5127134;27;20039;-77
2022/01/30 06:47:52;;;;;;;36.67;10.23;;;5.30;99.90;;;;;;5117405;27;20044;-78
2022/01/30 06:50:18;;;;;;;37.65;9.52;;;5.00;99.90;;;;;;5117587;27;20054;-77
2022/01/30 06:52:45;;;;;;;39.97;10.52;;;5.10;99.90;;;;;;5116969;27;20070;-76
2022/01/30 06:55:11;;;;;;;28.75;9.30;;;5.20;99.90;;;;;;5122686;27;20062;-77
2022/01/30 06:57:38;;;;;;;41.95;10.43;;;5.30;99.90;;;;;;5117428;27;20061;-77
2022/01/30 07:00:04;;;;;;;27.77;9.00;;;5.30;99.90;;;;;;5122526;27;20054;-78
2022/01/30 07:02:31;;;;;;;41.50;9.57;;;5.40;99.90;;;;;;5112304;27;20062;-77
2022/01/30 07:04:57;;;;;;;24.40;7.43;;;5.50;99.90;;;;;;5114820;27;20043;-77
2022/01/30 07:07:25;;;;;;;29.50;7.32;;;5.50;99.90;;;;;;5126713;27;20063;-78
2022/01/30 07:09:51;;;;;;;19.88;6.70;;;5.70;99.90;;;;;;5127780;27;20375;-77
2022/01/30 07:12:18;;;;;;;23.13;7.38;;;6.00;99.90;;;;;;5117911;27;20409;-79
2022/01/30 07:14:44;;;;;;;32.28;6.65;;;5.90;99.90;;;;;;5127259;27;20055;-77
2022/01/30 07:17:11;;;;;;;36.33;7.82;;;5.90;99.90;;;;;;5125987;27;20051;-77
2022/01/30 07:19:37;;;;;;;38.65;9.23;;;5.80;99.90;;;;;;5148678;27;20050;-77
2022/01/30 07:22:04;;;;;;;30.63;6.75;;;5.80;99.90;;;;;;5152057;27;20046;-80
2022/01/30 07:24:31;;;;;;;21.95;8.50;;;5.80;99.90;;;;;;5130532;27;20061;-77
2022/01/30 07:26:57;;;;;;;31.63;7.57;;;5.70;99.90;;;;;;5149245;27;20244;-77
2022/01/30 07:29:24;;;;;;;34.67;7.82;;;5.70;99.90;;;;;;5127343;27;20136;-75
2022/01/30 07:31:50;;;;;;;29.33;6.63;;;5.70;99.90;;;;;;5149133;27;20043;-77
2022/01/30 07:34:17;;;;;;;26.00;7.00;;;5.90;99.90;;;;;;5128471;27;20051;-77
2022/01/30 07:36:45;;;;;;;25.23;8.65;;;6.00;99.90;;;;;;5127638;27;20051;-76
2022/01/30 07:39:14;;;;;;;24.98;7.22;;;6.20;99.90;;;;;;5124705;27;20035;-77
2022/01/30 07:41:41;;;;;;;43.13;10.27;;;6.10;99.90;;;;;;5127956;27;20047;-75
2022/01/30 07:44:08;;;;;;;32.78;8.38;;;6.10;99.90;;;;;;5122470;27;20055;-77
2022/01/30 07:46:34;;;;;;;39.25;8.18;;;5.90;99.90;;;;;;5125484;27;20497;-77
2022/01/30 07:49:01;;;;;;;29.17;8.55;;;5.90;99.90;;;;;;5124227;27;20049;-77
2022/01/30 07:51:27;;;;;;;33.03;9.88;;;5.90;99.90;;;;;;5125455;27;20099;-77
2022/01/30 07:53:54;;;;;;;34.30;8.65;;;5.90;99.90;;;;;;5142813;27;20053;-77
2022/01/30 07:56:20;;;;;;;43.28;11.02;;;5.80;99.90;;;;;;5147726;27;20397;-75
2022/01/30 07:58:47;;;;;;;34.47;8.63;;;5.70;99.90;;;;;;5128964;27;20054;-77
2022/01/30 08:01:13;;;;;;;50.30;11.20;;;5.70;99.90;;;;;;5127770;27;20050;-77
2022/01/30 08:03:40;;;;;;;43.83;10.82;;;5.80;99.90;;;;;;5130204;27;20043;-77
2022/01/30 08:06:06;;;;;;;26.35;8.95;;;5.80;99.90;;;;;;5128007;27;20058;-79
2022/01/30 08:08:33;;;;;;;43.83;9.93;;;5.80;99.90;;;;;;5130925;27;20130;-77
2022/01/30 08:10:59;;;;;;;67.15;14.05;;;5.70;99.90;;;;;;5126038;27;20047;-77
2022/01/30 08:13:26;;;;;;;52.25;11.40;;;5.70;99.90;;;;;;5128037;27;20047;-76
2022/01/30 08:15:53;;;;;;;52.60;11.02;;;5.70;99.90;;;;;;5130994;27;20046;-76
2022/01/30 08:18:19;;;;;;;40.72;10.50;;;5.70;99.90;;;;;;5146111;27;20054;-77
2022/01/30 08:20:46;;;;;;;36.63;9.65;;;5.80;99.90;;;;;;5127327;27;20256;-79
2022/01/30 08:23:15;;;;;;;51.42;10.82;;;6.00;99.90;;;;;;5131781;27;20088;-77
2022/01/30 08:25:42;;;;;;;46.78;10.25;;;6.10;99.90;;;;;;5132685;27;20173;-76
2022/01/30 08:28:08;;;;;;;43.60;10.27;;;6.10;99.90;;;;;;5131860;27;20050;-79
2022/01/30 08:30:35;;;;;;;38.42;9.57;;;6.00;99.90;;;;;;5126555;27;20043;-77
2022/01/30 08:33:02;;;;;;;43.00;11.73;;;6.20;99.90;;;;;;5130553;27;20046;-77
2022/01/30 08:35:29;;;;;;;48.65;12.93;;;6.00;99.90;;;;;;5132275;27;20059;-77
2022/01/30 08:37:55;;;;;;;46.85;11.13;;;6.00;99.90;;;;;;5133414;27;20046;-77
2022/01/30 08:40:22;;;;;;;36.78;10.68;;;5.90;99.90;;;;;;5130454;27;20057;-78
2022/01/30 08:42:48;;;;;;;40.63;11.93;;;6.10;99.90;;;;;;5133366;27;20054;-78
2022/01/30 08:45:15;;;;;;;47.78;11.75;;;5.90;99.90;;;;;;5135567;27;20046;-78
2022/01/30 08:47:41;;;;;;;46.85;11.13;;;5.90;99.90;;;;;;5136324;27;20482;-79
2022/01/30 08:50:08;;;;;;;49.53;12.68;;;5.80;99.90;;;;;;5133158;27;20401;-76
2022/01/30 08:52:35;;;;;;;46.38;12.00;;;5.90;99.90;;;;;;5132270;27;20054;-77
2022/01/30 08:55:01;;;;;;;34.65;10.05;;;5.90;99.90;;;;;;5124970;27;20043;-77
2022/01/30 08:57:28;;;;;;;44.03;10.23;;;6.10;99.90;;;;;;5130898;27;20043;-77
2022/01/30 08:59:55;;;;;;;45.63;9.50;;;6.10;99.90;;;;;;5134346;27;20049;-78
2022/01/30 09:02:22;;;;;;;40.53;9.52;;;6.10;99.90;;;;;;5134375;27;20054;-78
2022/01/30 09:04:49;;;;;;;35.25;10.15;;;6.20;99.90;;;;;;5131696;27;20083;-78
2022/01/30 09:07:15;;;;;;;36.65;10.05;;;6.30;99.90;;;;;;5127867;27;20047;-79
2022/01/30 09:09:42;;;;;;;39.13;10.02;;;6.40;99.90;;;;;;5146014;27;20582;-79
2022/01/30 09:12:09;;;;;;;37.47;9.05;;;6.30;99.90;;;;;;5130742;27;20366;-80
2022/01/30 09:14:38;;;;;;;39.17;11.27;;;6.30;99.90;;;;;;5132713;27;20051;-77
2022/01/30 09:17:11;;;;;;;40.25;9.80;;;6.30;99.90;;;;;;5126755;27;20129;-79
2022/01/30 09:19:38;;;;;;;37.90;10.57;;;6.30;99.90;;;;;;5130044;27;20406;-79
2022/01/30 09:22:04;;;;;;;43.58;10.45;;;6.40;99.90;;;;;;5128560;27;20129;-79
2022/01/30 09:24:31;;;;;;;39.70;10.30;;;6.50;99.90;;;;;;5137392;27;20047;-79
2022/01/30 09:26:58;;;;;;;41.10;10.57;;;6.60;99.90;;;;;;5116451;27;20059;-78
2022/01/30 09:29:25;;;;;;;37.90;9.30;;;6.50;99.90;;;;;;5116241;27;20047;-78
2022/01/30 09:31:51;;;;;;;46.35;10.57;;;6.60;99.90;;;;;;5127040;27;20046;-79
2022/01/30 09:34:18;;;;;;;52.45;10.75;;;6.80;99.90;;;;;;5123123;27;20042;-78
2022/01/30 09:36:44;;;;;;;46.95;10.70;;;6.80;99.90;;;;;;5145488;27;20054;-77
2022/01/30 09:39:11;;;;;;;40.97;8.82;;;6.90;99.90;;;;;;5123204;27;20051;-77
2022/01/30 09:41:37;;;;;;;43.92;10.50;;;7.00;99.90;;;;;;5117667;27;20055;-77
2022/01/30 09:44:04;;;;;;;45.75;10.60;;;7.00;99.90;;;;;;5126615;27;20051;-77
2022/01/30 09:46:31;;;;;;;39.45;8.95;;;6.90;99.90;;;;;;5115438;27;20044;-77
2022/01/30 09:48:58;;;;;;;30.42;7.97;;;6.90;99.90;;;;;;5128802;27;20058;-78
2022/01/30 09:51:25;;;;;;;45.60;8.88;;;6.80;99.90;;;;;;5124492;27;20072;-78
2022/01/30 09:53:51;;;;;;;42.33;10.95;;;6.90;99.90;;;;;;5124167;27;20065;-78
2022/01/30 09:56:18;;;;;;;42.80;10.52;;;6.80;99.90;;;;;;5130837;27;20046;-80
2022/01/30 09:58:45;;;;;;;41.85;10.55;;;6.80;99.90;;;;;;5126440;27;20130;-77
2022/01/30 10:01:11;;;;;;;43.60;11.10;;;7.00;99.90;;;;;;5148520;27;20050;-77
2022/01/30 10:03:38;;;;;;;50.13;11.77;;;7.10;99.90;;;;;;5127978;27;20127;-77
2022/01/30 10:06:04;;;;;;;45.60;11.15;;;6.80;99.90;;;;;;5130736;27;20045;-77
2022/01/30 10:08:31;;;;;;;38.65;9.82;;;6.90;99.90;;;;;;5145796;27;20055;-77
2022/01/30 10:11:00;;;;;;;45.05;10.13;;;7.00;99.90;;;;;;5149822;27;20560;-77
2022/01/30 10:13:27;;;;;;;37.03;9.57;;;6.80;99.90;;;;;;5128228;27;20083;-77
2022/01/30 10:15:55;;;;;;;41.75;10.60;;;6.80;99.90;;;;;;5127343;27;20598;-77
2022/01/30 10:18:22;;;;;;;34.88;8.77;;;6.70;99.90;;;;;;5136122;27;20119;-78
2022/01/30 10:20:48;;;;;;;31.23;8.73;;;6.70;99.90;;;;;;5128885;27;20055;-78
2022/01/30 10:23:15;;;;;;;41.47;11.25;;;6.70;99.90;;;;;;5129044;27;20051;-78
2022/01/30 10:25:41;;;;;;;56.78;10.30;;;6.70;99.90;;;;;;5124544;27;20479;-78
2022/01/30 10:28:08;;;;;;;39.78;10.13;;;6.90;99.90;;;;;;5113071;27;20478;-78
2022/01/30 10:30:35;;;;;;;48.25;10.10;;;6.90;99.90;;;;;;5119053;27;20466;-78
2022/01/30 10:33:01;;;;;;;34.28;9.52;;;7.00;99.90;;;;;;5139060;27;20867;-77
2022/01/30 10:35:28;;;;;;;40.55;10.90;;;6.90;99.90;;;;;;5128254;27;21340;-79
2022/01/30 10:37:54;;;;;;;46.50;9.68;;;7.10;99.90;;;;;;5111560;27;20383;-79
2022/01/30 10:40:28;;;;;;;40.08;10.88;;;7.00;99.90;;;;;;5122620;27;20133;-81
2022/01/30 10:42:55;;;;;;;41.22;9.82;;;7.00;99.90;;;;;;5115720;27;20088;-79
2022/01/30 10:45:22;;;;;;;41.83;9.30;;;6.90;99.90;;;;;;5116203;27;20054;-80
2022/01/30 10:47:48;;;;;;;49.95;10.05;;;7.00;99.90;;;;;;5126708;27;20054;-78
2022/01/30 10:50:15;;;;;;;40.47;9.60;;;7.00;99.90;;;;;;5120102;27;20474;-79
2022/01/30 10:52:41;;;;;;;50.30;10.02;;;6.90;99.90;;;;;;5118333;27;20046;-79
2022/01/30 10:55:08;;;;;;;44.05;9.32;;;7.00;99.90;;;;;;5115907;27;20063;-80
2022/01/30 10:57:34;;;;;;;39.85;10.10;;;6.90;99.90;;;;;;5129843;27;20047;-78
2022/01/30 11:00:01;;;;;;;33.15;9.07;;;7.00;99.90;;;;;;5121633;27;20053;-79
2022/01/30 11:02:28;;;;;;;47.33;10.93;;;6.90;99.90;;;;;;5120908;27;20058;-79
2022/01/30 11:04:55;;;;;;;40.58;9.27;;;6.90;99.90;;;;;;5118363;27;20043;-79
2022/01/30 11:07:22;;;;;;;39.40;8.57;;;6.80;99.90;;;;;;5130040;27;20057;-81
2022/01/30 11:09:49;;;;;;;34.92;10.48;;;6.90;99.90;;;;;;5120404;27;20057;-78
2022/01/30 11:12:18;;;;;;;34.58;9.70;;;7.00;99.90;;;;;;5120979;27;20073;-79
2022/01/30 11:14:54;;;;;;;33.97;7.25;;;7.00;99.90;;;;;;5122848;27;20058;-79
2022/01/30 11:17:20;;;;;;;33.72;8.90;;;7.20;99.90;;;;;;5117382;27;20050;-79
2022/01/30 11:19:48;;;;;;;23.77;7.00;;;7.20;99.90;;;;;;5128210;27;20046;-79
2022/01/30 11:22:15;;;;;;;38.67;9.13;;;7.20;99.90;;;;;;5119838;27;20099;-78
2022/01/30 11:24:41;;;;;;;26.85;7.13;;;7.20;99.90;;;;;;5120086;27;20474;-79
2022/01/30 11:27:08;;;;;;;41.33;9.98;;;7.40;99.90;;;;;;5120778;27;20708;-78
2022/01/30 11:29:34;;;;;;;46.75;10.77;;;7.40;99.90;;;;;;5123006;27;20409;-80
2022/01/30 11:32:01;;;;;;;42.95;9.30;;;7.40;99.90;;;;;;5117325;27;20739;-78
2022/01/30 11:34:27;;;;;;;32.75;8.05;;;7.30;99.90;;;;;;5121296;27;20170;-78
2022/01/30 11:36:54;;;;;;;28.23;7.78;;;7.30;99.90;;;;;;5128408;27;20424;-78
2022/01/30 11:39:20;;;;;;;31.70;7.53;;;7.40;99.90;;;;;;5121042;27;20417;-78
2022/01/30 11:41:47;;;;;;;40.33;7.80;;;7.30;99.90;;;;;;5122076;27;20516;-78
2022/01/30 11:44:13;;;;;;;38.70;9.23;;;7.50;99.90;;;;;;5122905;27;20058;-78
2022/01/30 11:46:40;;;;;;;40.50;7.68;;;7.60;99.90;;;;;;5124347;27;20043;-78
2022/01/30 11:49:07;;;;;;;41.38;9.27;;;7.80;99.90;;;;;;5139318;27;20091;-78
2022/01/30 11:51:33;;;;;;;29.17;7.82;;;7.60;99.90;;;;;;5141908;27;20043;-80
2022/01/30 11:54:00;;;;;;;38.25;9.10;;;7.70;99.90;;;;;;5125890;27;20050;-79
2022/01/30 11:56:26;;;;;;;44.17;8.02;;;7.50;99.90;;;;;;5127112;27;20046;-80
2022/01/30 11:58:58;;;;;;;27.05;8.20;;;7.30;99.90;;;;;;5127639;27;20038;-78
2022/01/30 12:01:24;;;;;;;44.40;10.35;;;7.30;99.90;;;;;;5120958;27;20455;-80
2022/01/30 12:03:51;;;;;;;27.25;8.57;;;7.30;99.90;;;;;;5145551;27;20059;-78
2022/01/30 12:06:17;;;;;;;58.50;11.05;;;7.50;99.90;;;;;;5121934;27;20054;-78
2022/01/30 12:08:45;;;;;;;43.13;8.95;;;7.50;99.90;;;;;;5117460;27;20051;-79
2022/01/30 12:11:11;;;;;;;32.15;9.57;;;7.40;99.90;;;;;;5126636;27;20073;-78
2022/01/30 12:13:38;;;;;;;44.10;11.63;;;7.50;99.90;;;;;;5117833;27;20502;-78
2022/01/30 12:16:04;;;;;;;28.40;7.90;;;7.50;99.90;;;;;;5120569;27;20054;-79
2022/01/30 12:18:31;;;;;;;57.55;11.00;;;7.50;99.90;;;;;;5118831;27;20501;-78
2022/01/30 12:20:59;;;;;;;40.72;8.65;;;7.20;99.90;;;;;;5126701;27;20466;-78
2022/01/30 12:23:25;;;;;;;62.25;10.88;;;7.30;99.90;;;;;;5117365;27;20063;-78
2022/01/30 12:25:52;;;;;;;35.03;9.73;;;7.10;99.90;;;;;;5129061;27;20039;-78
2022/01/30 12:28:19;;;;;;;41.53;9.35;;;6.80;99.90;;;;;;5118475;27;20058;-79
2022/01/30 12:30:46;;;;;;;39.83;10.48;;;6.80;99.90;;;;;;5117923;27;20055;-78
2022/01/30 12:33:13;;;;;;;51.88;11.43;;;6.80;99.90;;;;;;5126620;27;20050;-77
2022/01/30 12:35:39;;;;;;;34.22;10.10;;;6.80;99.90;;;;;;5128442;27;20057;-80
2022/01/30 12:38:06;;;;;;;35.33;10.80;;;6.90;99.90;;;;;;5121819;27;20055;-78
2022/01/30 12:40:32;;;;;;;38.15;8.85;;;6.90;99.90;;;;;;5142782;27;20054;-78
2022/01/30 12:42:59;;;;;;;40.35;8.43;;;7.00;99.90;;;;;;5122897;27;20043;-78
2022/01/30 12:45:25;;;;;;;41.13;9.65;;;6.90;99.90;;;;;;5119068;27;20043;-78
2022/01/30 12:47:52;;;;;;;29.33;9.38;;;7.10;99.90;;;;;;5121798;27;20248;-78
2022/01/30 12:50:19;;;;;;;29.38;8.55;;;7.30;99.90;;;;;;5126690;27;20050;-78
2022/01/30 12:52:49;;;;;;;25.80;7.68;;;7.10;99.90;;;;;;5149366;27;20552;-78
2022/01/30 12:55:17;;;;;;;32.15;7.80;;;7.10;99.90;;;;;;5119632;27;20051;-78
2022/01/30 12:57:43;;;;;;;28.80;7.95;;;7.20;99.90;;;;;;5114816;27;20579;-78
2022/01/30 13:00:10;;;;;;;30.10;6.97;;;7.30;99.90;;;;;;5122134;27;20069;-78
2022/01/30 13:02:37;;;;;;;35.42;9.70;;;7.20;99.90;;;;;;5131687;27;20050;-78
2022/01/30 13:05:04;;;;;;;36.90;8.63;;;7.40;99.90;;;;;;5128232;27;20043;-78
2022/01/30 13:07:30;;;;;;;25.90;8.77;;;7.20;99.90;;;;;;5141901;27;20057;-78
2022/01/30 13:09:57;;;;;;;26.02;7.57;;;6.90;99.90;;;;;;5113918;27;20401;-78
2022/01/30 13:12:23;;;;;;;34.17;9.95;;;7.00;99.90;;;;;;5127773;27;20051;-78
2022/01/30 13:14:50;;;;;;;22.92;7.85;;;6.70;99.90;;;;;;5117882;27;20051;-77
2022/01/30 13:17:16;;;;;;;43.70;9.40;;;6.80;99.90;;;;;;5127618;27;20055;-78